createdAt,value
2022-09-14T00:01:35.148Z,2.88
2022-09-14T00:04:11.273Z,5.25
2022-09-14T00:06:39.535Z,3.22
2022-09-14T00:09:08.045Z,3.03
2022-09-14T00:11:36.337Z,3.80
2022-09-14T00:14:05.653Z,3.85
2022-09-14T00:16:39.971Z,3.80
2022-09-14T00:19:17.008Z,3.88
2022-09-14T00:21:44.666Z,4.10
2022-09-14T00:24:12.308Z,3.35
2022-09-14T00:26:39.653Z,4.07
2022-09-14T00:29:07.396Z,3.50
2022-09-14T00:31:37.224Z,3.83
2022-09-14T00:34:06.298Z,3.88
2022-09-14T00:36:39.217Z,3.17
2022-09-14T00:39:07.274Z,4.25
2022-09-14T00:41:39.347Z,3.95
2022-09-14T00:44:12.828Z,3.28
2022-09-14T00:46:43.058Z,3.50
2022-09-14T00:49:15.787Z,3.72
2022-09-14T00:52:18.908Z,3.17
2022-09-14T00:54:59.818Z,4.20
2022-09-14T00:57:31.445Z,3.28
2022-09-14T00:59:59.478Z,3.17
2022-09-14T01:02:28.565Z,3.20
2022-09-14T01:04:56.651Z,4.43
2022-09-14T01:07:52.274Z,2.88
2022-09-14T01:10:28.421Z,3.55
2022-09-14T01:13:05.299Z,3.15
2022-09-14T01:15:52.257Z,3.53
2022-09-14T01:18:27.631Z,5.78
2022-09-14T01:21:03.874Z,7.30
2022-09-14T01:24:03.139Z,2.60
2022-09-14T01:26:53.972Z,3.38
2022-09-14T01:29:35.799Z,3.53
2022-09-14T01:32:13.001Z,3.47
2022-09-14T01:34:49.822Z,3.55
2022-09-14T01:37:42.804Z,3.63
2022-09-14T01:40:23.368Z,2.92
2022-09-14T01:42:56.500Z,2.88
2022-09-14T01:45:28.096Z,2.97
2022-09-14T01:48:02.306Z,3.33
2022-09-14T01:50:38.117Z,3.90
2022-09-14T01:53:25.980Z,2.70
2022-09-14T01:56:04.673Z,3.20
2022-09-14T01:58:36.506Z,2.80
2022-09-14T02:01:09.170Z,5.93
2022-09-14T02:03:48.887Z,4.25
2022-09-14T02:06:31.832Z,3.17
2022-09-14T02:09:00.277Z,6.47
2022-09-14T02:11:27.637Z,3.00
2022-09-14T02:13:55.352Z,2.92
2022-09-14T02:16:24.643Z,3.35
2022-09-14T02:18:52.778Z,3.03
2022-09-14T02:21:26.530Z,2.95
2022-09-14T02:23:54.304Z,3.60
2022-09-14T02:26:22.818Z,2.45
2022-09-14T02:28:55.751Z,3.25
2022-09-14T02:31:59.369Z,3.33
2022-09-14T02:34:27.273Z,3.25
2022-09-14T02:37:10.984Z,2.75
2022-09-14T02:39:43.186Z,3.58
2022-09-14T02:42:19.927Z,3.90
2022-09-14T02:44:58.905Z,3.25
2022-09-14T02:47:46.651Z,3.05
2022-09-14T02:50:21.216Z,4.82
2022-09-14T02:55:21.088Z,3.42
2022-09-14T02:58:09.554Z,2.88
2022-09-14T03:00:43.826Z,4.55
2022-09-14T03:03:13.691Z,3.15
2022-09-14T03:05:42.397Z,2.90
2022-09-14T03:08:10.815Z,2.95
2022-09-14T03:10:41.417Z,2.80
2022-09-14T03:13:09.570Z,3.88
2022-09-14T03:15:37.167Z,2.60
2022-09-14T03:18:06.503Z,2.85
2022-09-14T03:20:34.545Z,3.67
2022-09-14T03:23:02.762Z,2.10
2022-09-14T03:25:30.869Z,2.30
2022-09-14T03:27:59.953Z,3.40
2022-09-14T03:30:27.908Z,3.00
2022-09-14T03:32:57.625Z,3.20
2022-09-14T03:35:25.672Z,3.40
2022-09-14T03:37:53.382Z,2.60
2022-09-14T03:40:22.072Z,3.13
2022-09-14T03:42:51.172Z,2.92
2022-09-14T03:45:19.869Z,3.70
2022-09-14T03:47:47.915Z,4.05
2022-09-14T03:50:16.905Z,4.25
2022-09-14T03:52:44.442Z,3.20
2022-09-14T03:55:11.949Z,3.33
2022-09-14T03:57:40.054Z,2.45
2022-09-14T04:00:08.508Z,3.10
2022-09-14T04:02:36.417Z,3.90
2022-09-14T04:05:04.785Z,2.78
2022-09-14T04:07:32.327Z,3.67
2022-09-14T04:09:59.692Z,3.30
2022-09-14T04:12:29.673Z,2.70
2022-09-14T04:14:57.133Z,2.35
2022-09-14T04:17:25.180Z,2.47
2022-09-14T04:19:52.719Z,3.75
2022-09-14T04:22:20.094Z,3.75
2022-09-14T04:24:47.734Z,2.92
2022-09-14T04:27:15.308Z,3.03
2022-09-14T04:29:45.392Z,3.78
2022-09-14T04:32:12.805Z,4.03
2022-09-14T04:34:40.546Z,3.50
2022-09-14T04:37:08.081Z,2.53
2022-09-14T04:39:36.067Z,3.63
2022-09-14T04:42:03.686Z,4.40
2022-09-14T04:44:31.029Z,3.40
2022-09-14T04:46:58.669Z,5.38
2022-09-14T04:49:26.265Z,3.83
2022-09-14T04:51:53.941Z,3.03
2022-09-14T04:54:22.108Z,4.18
2022-09-14T04:56:49.583Z,3.40
2022-09-14T04:59:17.378Z,2.97
2022-09-14T05:01:47.567Z,4.03
2022-09-14T05:04:16.179Z,3.22
2022-09-14T05:06:44.325Z,3.40
2022-09-14T05:09:16.198Z,4.18
2022-09-14T05:11:46.067Z,6.88
2022-09-14T05:14:14.374Z,4.05
2022-09-14T05:16:43.511Z,4.18
2022-09-14T05:19:14.636Z,4.85
2022-09-14T05:21:42.042Z,4.07
2022-09-14T05:24:18.394Z,5.03
2022-09-14T05:26:46.831Z,5.13
2022-09-14T05:29:15.948Z,3.70
2022-09-14T05:31:44.210Z,5.88
2022-09-14T05:34:13.175Z,4.22
2022-09-14T05:36:40.708Z,8.30
2022-09-14T05:39:08.829Z,6.22
2022-09-14T05:41:37.422Z,5.20
2022-09-14T05:44:05.454Z,5.03
2022-09-14T05:46:33.750Z,9.15
2022-09-14T05:49:01.369Z,5.45
2022-09-14T05:51:29.406Z,6.97
2022-09-14T05:53:58.769Z,5.05
2022-09-14T05:56:28.593Z,4.88
2022-09-14T05:58:56.147Z,9.23
2022-09-14T06:01:26.343Z,9.23
2022-09-14T06:03:56.257Z,6.38
2022-09-14T06:06:24.364Z,7.07
2022-09-14T06:08:54.125Z,5.70
2022-09-14T06:11:28.487Z,4.38
2022-09-14T06:13:56.897Z,5.20
2022-09-14T06:16:25.832Z,6.35
2022-09-14T06:18:56.174Z,4.82
2022-09-14T06:21:28.492Z,6.32
2022-09-14T06:23:56.618Z,6.07
2022-09-14T06:26:24.347Z,5.00
2022-09-14T06:28:51.779Z,9.73
2022-09-14T06:31:22.445Z,5.40
2022-09-14T06:33:53.427Z,5.95
2022-09-14T06:36:26.729Z,5.88
2022-09-14T06:38:55.684Z,8.05
2022-09-14T06:41:28.998Z,5.38
2022-09-14T06:43:58.845Z,8.63
2022-09-14T06:46:30.407Z,8.35
2022-09-14T06:49:03.441Z,8.95
2022-09-14T06:51:36.384Z,4.50
2022-09-14T06:54:05.821Z,5.20
2022-09-14T06:56:38.834Z,5.70
2022-09-14T06:59:07.822Z,8.60
2022-09-14T07:01:36.262Z,6.88
2022-09-14T07:04:05.284Z,7.68
2022-09-14T07:06:39.104Z,5.43
2022-09-14T07:09:06.889Z,8.68
2022-09-14T07:11:34.542Z,7.50
2022-09-14T07:14:02.089Z,5.32
2022-09-14T07:16:31.592Z,6.20
2022-09-14T07:19:01.911Z,6.03
2022-09-14T07:21:31.049Z,4.30
2022-09-14T07:23:58.593Z,5.85
2022-09-14T07:26:28.574Z,3.83
2022-09-14T07:29:02.225Z,8.35
2022-09-14T07:31:33.260Z,4.47
2022-09-14T07:34:03.244Z,5.28
2022-09-14T07:36:34.823Z,9.73
2022-09-14T07:39:05.911Z,5.45
2022-09-14T07:41:34.656Z,6.22
2022-09-14T07:44:05.122Z,5.78
2022-09-14T07:46:38.320Z,4.68
2022-09-14T07:49:07.250Z,4.00
2022-09-14T07:51:36.702Z,6.57
2022-09-14T07:54:06.750Z,5.70
2022-09-14T07:56:35.040Z,5.00
2022-09-14T07:59:31.326Z,6.20
2022-09-14T08:01:52.432Z,5.53
2022-09-14T08:04:19.975Z,4.57
2022-09-14T08:06:47.281Z,5.65
2022-09-14T08:09:15.029Z,3.92
2022-09-14T08:11:42.406Z,5.70
2022-09-14T08:14:11.711Z,6.35
2022-09-14T08:16:40.682Z,5.43
2022-09-14T08:19:13.081Z,5.70
2022-09-14T08:21:46.283Z,3.90
2022-09-14T08:24:17.233Z,5.15
2022-09-14T08:26:45.985Z,5.40
2022-09-14T08:29:15.160Z,4.20
2022-09-14T08:31:45.398Z,5.82
2022-09-14T08:34:15.486Z,4.63
2022-09-14T08:36:44.089Z,4.50
2022-09-14T08:39:13.854Z,4.38
2022-09-14T08:42:00.169Z,5.15
2022-09-14T08:47:19.228Z,4.35
2022-09-14T08:49:59.453Z,8.18
2022-09-14T08:52:34.968Z,4.22
2022-09-14T08:55:35.372Z,5.03
2022-09-14T08:58:20.508Z,8.32
2022-09-14T09:01:16.961Z,6.97
2022-09-14T09:04:43.447Z,5.57
2022-09-14T09:07:23.254Z,6.50
2022-09-14T09:09:53.365Z,4.68
2022-09-14T09:12:24.284Z,5.25
2022-09-14T09:14:59.277Z,5.32
2022-09-14T09:17:43.575Z,4.97
2022-09-14T09:20:20.934Z,5.57
2022-09-14T09:23:01.258Z,4.30
2022-09-14T09:25:39.853Z,6.90
2022-09-14T09:28:11.952Z,5.22
2022-09-14T09:30:41.349Z,8.30
2022-09-14T09:33:17.978Z,4.07
2022-09-14T09:35:45.941Z,5.15
2022-09-14T09:38:16.977Z,6.72
2022-09-14T09:40:49.235Z,6.20
2022-09-14T09:43:38.494Z,7.32
2022-09-14T09:46:12.344Z,5.72
2022-09-14T09:48:43.075Z,7.63
2022-09-14T09:51:26.783Z,4.65
2022-09-14T09:54:12.474Z,5.18
2022-09-14T09:56:51.701Z,5.45
2022-09-14T09:59:38.947Z,6.05
2022-09-14T10:02:29.092Z,4.95
2022-09-14T10:05:08.679Z,5.85
2022-09-14T10:07:56.055Z,6.22
2022-09-14T10:10:46.024Z,4.18
2022-09-14T10:13:36.470Z,4.28
2022-09-14T10:16:07.224Z,5.63
2022-09-14T10:18:35.545Z,5.00
2022-09-14T10:21:02.896Z,5.65
2022-09-14T10:23:38.710Z,4.43
2022-09-14T10:26:26.998Z,5.10
2022-09-14T10:29:27.861Z,6.10
2022-09-14T10:32:06.328Z,5.18
2022-09-14T10:34:33.939Z,4.63
2022-09-14T10:37:32.762Z,6.88
2022-09-14T10:40:18.487Z,3.42
2022-09-14T10:43:13.308Z,3.72
2022-09-14T10:45:46.901Z,4.53
2022-09-14T10:48:41.010Z,10.27
2022-09-14T10:51:23.774Z,6.80
2022-09-14T10:54:28.673Z,3.22
2022-09-14T10:57:05.195Z,4.78
2022-09-14T10:59:44.355Z,4.00
2022-09-14T11:02:38.551Z,3.65
2022-09-14T11:05:25.600Z,3.50
2022-09-14T11:08:03.241Z,4.80
2022-09-14T11:10:41.426Z,4.00
2022-09-14T11:13:33.697Z,7.90
2022-09-14T11:16:47.786Z,7.05
2022-09-14T11:19:24.111Z,6.07
2022-09-14T11:22:12.885Z,5.40
2022-09-14T11:24:46.046Z,4.80
2022-09-14T11:27:27.963Z,3.60
2022-09-14T11:30:02.608Z,3.85
2022-09-14T11:32:51.729Z,5.03
2022-09-14T11:35:24.228Z,6.90
2022-09-14T11:37:58.626Z,4.95
2022-09-14T11:40:31.383Z,4.00
2022-09-14T11:43:08.784Z,3.65
2022-09-14T11:45:50.307Z,5.68
2022-09-14T11:48:42.417Z,2.60
2022-09-14T11:51:20.411Z,4.50
2022-09-14T11:53:48.200Z,5.32
2022-09-14T11:56:27.103Z,10.40
2022-09-14T11:58:58.158Z,16.65
2022-09-14T12:01:37.259Z,21.70
2022-09-14T12:04:16.990Z,17.77
2022-09-14T12:06:51.297Z,17.75
2022-09-14T12:09:21.313Z,19.27
2022-09-14T12:11:58.502Z,11.88
2022-09-14T12:14:31.617Z,10.05
2022-09-14T12:17:22.764Z,8.85
2022-09-14T12:19:59.253Z,12.43
2022-09-14T12:22:36.237Z,11.15
2022-09-14T12:25:05.497Z,7.30
2022-09-14T12:27:36.653Z,6.45
2022-09-14T12:30:40.925Z,5.72
2022-09-14T12:33:49.489Z,7.30
2022-09-14T12:36:19.781Z,9.05
2022-09-14T12:38:52.356Z,8.48
2022-09-14T12:46:09.853Z,6.88
2022-09-14T12:48:47.310Z,5.68
2022-09-14T12:51:27.112Z,5.20
2022-09-14T12:54:36.467Z,9.10
2022-09-14T12:57:07.460Z,8.30
2022-09-14T12:59:40.365Z,15.02
2022-09-14T13:02:49.434Z,6.72
2022-09-14T13:05:20.601Z,8.35
2022-09-14T13:07:48.322Z,6.57
2022-09-14T13:10:37.911Z,19.30
2022-09-14T13:13:18.020Z,6.85
2022-09-14T13:15:55.522Z,7.35
2022-09-14T13:18:28.260Z,4.22
2022-09-14T13:20:58.630Z,8.23
2022-09-14T13:23:41.956Z,4.13
2022-09-14T13:26:31.640Z,8.60
2022-09-14T13:29:01.429Z,4.57
2022-09-14T13:31:35.634Z,6.88
2022-09-14T13:34:05.268Z,5.60
2022-09-14T13:36:40.844Z,4.90
2022-09-14T13:39:19.404Z,5.32
2022-09-14T13:41:47.430Z,4.38
2022-09-14T13:44:15.497Z,4.90
2022-09-14T13:46:43.397Z,4.85
2022-09-14T13:49:13.140Z,3.42
2022-09-14T13:51:40.600Z,5.13
2022-09-14T13:54:29.665Z,7.95
2022-09-14T13:57:18.713Z,4.85
2022-09-14T14:00:14.155Z,7.20
2022-09-14T14:05:30.046Z,3.88
2022-09-14T14:08:00.748Z,4.82
2022-09-14T14:10:32.423Z,6.07
2022-09-14T14:13:01.749Z,3.53
2022-09-14T14:15:40.224Z,3.05
2022-09-14T14:18:30.942Z,3.75
2022-09-14T14:21:06.607Z,4.68
2022-09-14T14:23:34.291Z,3.72
2022-09-14T14:26:14.615Z,3.45
2022-09-14T14:28:42.576Z,4.13
2022-09-14T14:31:15.925Z,4.22
2022-09-14T14:33:46.857Z,3.92
2022-09-14T14:36:14.607Z,3.70
2022-09-14T14:38:44.202Z,4.43
2022-09-14T14:41:21.043Z,4.63
2022-09-14T14:43:52.236Z,3.95
2022-09-14T14:46:20.121Z,5.93
2022-09-14T14:48:47.447Z,4.38
2022-09-14T14:51:15.628Z,3.08
2022-09-14T14:53:43.768Z,4.00
2022-09-14T14:56:13.669Z,4.40
2022-09-14T14:58:45.826Z,4.57
2022-09-14T15:01:13.756Z,5.68
2022-09-14T15:03:41.214Z,4.05
2022-09-14T15:06:19.270Z,5.40
2022-09-14T15:08:46.864Z,5.20
2022-09-14T15:11:17.912Z,4.85
2022-09-14T15:13:46.702Z,4.30
2022-09-14T15:16:14.800Z,7.47
2022-09-14T15:18:42.523Z,4.03
2022-09-14T15:21:10.861Z,4.10
2022-09-14T15:23:39.024Z,5.13
2022-09-14T15:26:06.625Z,4.28
2022-09-14T15:28:40.724Z,18.48
2022-09-14T15:31:08.322Z,10.47
2022-09-14T15:33:35.654Z,5.28
2022-09-14T15:36:03.471Z,4.43
2022-09-14T15:38:32.179Z,3.58
2022-09-14T15:40:59.546Z,5.18
2022-09-14T15:43:27.861Z,5.40
2022-09-14T15:45:55.634Z,4.68
2022-09-14T15:48:23.391Z,6.82
2022-09-14T15:50:50.745Z,3.28
2022-09-14T15:53:19.815Z,5.75
2022-09-14T15:55:47.350Z,4.47
2022-09-14T15:58:14.748Z,4.50
2022-09-14T16:00:44.990Z,6.47
2022-09-14T16:03:12.822Z,7.18
2022-09-14T16:05:40.299Z,7.88
2022-09-14T16:08:08.067Z,5.70
2022-09-14T16:10:37.973Z,5.50
2022-09-14T16:13:05.654Z,5.35
2022-09-14T16:15:33.176Z,3.95
2022-09-14T16:18:00.642Z,5.38
2022-09-14T16:20:28.242Z,4.70
2022-09-14T16:22:55.992Z,3.83
2022-09-14T16:25:23.399Z,7.13
2022-09-14T16:27:50.759Z,5.10
2022-09-14T16:30:18.481Z,4.68
2022-09-14T16:32:45.957Z,5.63
2022-09-14T16:35:13.310Z,5.75
2022-09-14T16:37:40.892Z,4.13
2022-09-14T16:40:09.424Z,5.43
2022-09-14T16:42:36.942Z,5.43
2022-09-14T16:45:04.876Z,4.13
2022-09-14T16:47:32.422Z,4.13
2022-09-14T16:49:59.907Z,5.10
2022-09-14T16:52:29.657Z,6.00
2022-09-14T16:54:57.736Z,4.18
2022-09-14T16:57:26.777Z,3.80
2022-09-14T16:59:54.447Z,3.58
2022-09-14T17:02:23.220Z,3.45
2022-09-14T17:04:50.780Z,4.82
2022-09-14T17:07:18.345Z,5.60
2022-09-14T17:09:46.008Z,4.45
2022-09-14T17:12:14.373Z,3.97
2022-09-14T17:14:42.284Z,2.97
2022-09-14T17:17:09.680Z,5.03
2022-09-14T17:19:40.497Z,4.47
2022-09-14T17:22:10.863Z,4.80
2022-09-14T17:24:39.909Z,4.68
2022-09-14T17:27:07.512Z,7.18
2022-09-14T17:29:38.518Z,15.85
2022-09-14T17:32:06.280Z,105.55
2022-09-14T17:34:36.374Z,122.13
2022-09-14T17:37:04.206Z,131.45
2022-09-14T17:39:31.782Z,107.78
2022-09-14T17:42:00.406Z,112.82
2022-09-14T17:44:31.486Z,102.70
2022-09-14T17:46:58.882Z,98.10
2022-09-14T17:49:26.512Z,83.38
2022-09-14T17:51:53.848Z,75.13
2022-09-14T17:54:21.191Z,71.05
2022-09-14T17:56:49.603Z,67.32
2022-09-14T17:59:20.907Z,64.72
2022-09-14T18:01:49.386Z,53.55
2022-09-14T18:04:18.243Z,42.28
2022-09-14T18:06:47.867Z,41.67
2022-09-14T18:09:21.177Z,34.88
2022-09-14T18:11:50.071Z,39.10
2022-09-14T18:14:18.033Z,31.60
2022-09-14T18:16:46.850Z,29.45
2022-09-14T18:19:15.941Z,25.05
2022-09-14T18:21:45.918Z,28.90
2022-09-14T18:24:16.175Z,27.48
2022-09-14T18:26:46.570Z,21.58
2022-09-14T18:29:15.859Z,23.45
2022-09-14T18:31:44.458Z,17.00
2022-09-14T18:34:11.985Z,21.85
2022-09-14T18:36:39.583Z,18.70
2022-09-14T18:39:08.167Z,17.55
2022-09-14T18:41:37.055Z,20.77
2022-09-14T18:44:05.216Z,18.67
2022-09-14T18:46:34.235Z,16.63
2022-09-14T18:49:02.294Z,15.18
2022-09-14T18:51:31.985Z,17.65
2022-09-14T18:54:04.348Z,12.25
2022-09-14T18:56:33.590Z,15.10
2022-09-14T18:59:06.368Z,11.60
2022-09-14T19:01:36.547Z,15.43
2022-09-14T19:04:07.533Z,11.80
2022-09-14T19:06:39.187Z,10.18
2022-09-14T19:09:07.781Z,8.52
2022-09-14T19:11:36.464Z,11.18
2022-09-14T19:14:10.491Z,11.73
2022-09-14T19:16:40.448Z,9.20
2022-09-14T19:19:10.911Z,13.15
2022-09-14T19:21:38.841Z,6.72
2022-09-14T19:24:10.403Z,9.40
2022-09-14T19:26:45.345Z,7.28
2022-09-14T19:29:19.871Z,7.53
2022-09-14T19:31:53.120Z,9.32
2022-09-14T19:34:26.196Z,8.73
2022-09-14T19:36:58.070Z,6.63
2022-09-14T19:39:26.740Z,8.05
2022-09-14T19:41:54.089Z,8.07
2022-09-14T19:44:25.034Z,7.90
2022-09-14T19:46:52.936Z,8.40
2022-09-14T19:49:23.607Z,7.00
2022-09-14T19:51:52.751Z,7.07
2022-09-14T19:54:20.523Z,6.78
2022-09-14T19:56:48.175Z,9.15
2022-09-14T19:59:16.687Z,8.85
2022-09-14T20:01:45.042Z,8.80
2022-09-14T20:04:13.096Z,8.30
2022-09-14T20:06:43.443Z,7.78
2022-09-14T20:09:12.812Z,7.18
2022-09-14T20:11:43.424Z,8.63
2022-09-14T20:14:13.782Z,5.97
2022-09-14T20:16:47.326Z,5.95
2022-09-14T20:19:20.291Z,8.63
2022-09-14T20:21:49.524Z,7.18
2022-09-14T20:24:26.110Z,8.25
2022-09-14T20:26:56.607Z,6.90
2022-09-14T20:29:25.693Z,7.22
2022-09-14T20:31:53.383Z,5.15
2022-09-14T20:34:21.580Z,6.22
2022-09-14T20:36:50.975Z,5.45
2022-09-14T20:39:19.794Z,6.30
2022-09-14T20:41:57.156Z,6.72
2022-09-14T20:44:24.801Z,7.60
2022-09-14T20:46:52.425Z,7.85
2022-09-14T20:49:22.087Z,6.15
2022-09-14T20:51:52.538Z,5.40
2022-09-14T20:54:20.876Z,6.57
2022-09-14T20:56:48.218Z,6.15
2022-09-14T20:59:17.386Z,6.07
2022-09-14T21:01:47.326Z,7.45
2022-09-14T21:04:22.021Z,6.35
2022-09-14T21:06:52.621Z,4.93
2022-09-14T21:09:23.203Z,4.78
2022-09-14T21:11:51.191Z,8.75
2022-09-14T21:14:19.823Z,6.32
2022-09-14T21:16:49.117Z,5.50
2022-09-14T21:19:20.222Z,5.32
2022-09-14T21:21:49.121Z,5.82
2022-09-14T21:24:18.434Z,4.50
2022-09-14T21:26:46.701Z,4.97
2022-09-14T21:29:20.841Z,5.13
2022-09-14T21:31:48.799Z,4.53
2022-09-14T21:34:16.484Z,3.30
2022-09-14T21:36:49.032Z,4.93
2022-09-14T21:39:21.451Z,5.15
2022-09-14T21:41:53.439Z,3.90
2022-09-14T21:44:34.000Z,4.80
2022-09-14T21:47:02.106Z,4.43
2022-09-14T21:49:29.840Z,3.97
2022-09-14T21:51:57.187Z,4.95
2022-09-14T21:54:24.655Z,4.22
2022-09-14T21:56:52.905Z,6.15
2022-09-14T21:59:21.945Z,4.70
2022-09-14T22:01:49.619Z,5.75
2022-09-14T22:04:22.766Z,5.15
2022-09-14T22:06:51.582Z,6.43
2022-09-14T22:09:21.333Z,5.82
2022-09-14T22:11:49.687Z,5.38
2022-09-14T22:14:19.908Z,3.97
2022-09-14T22:16:48.801Z,3.45
2022-09-14T22:19:18.059Z,4.80
2022-09-14T22:21:45.805Z,3.60
2022-09-14T22:24:20.985Z,4.07
2022-09-14T22:26:50.226Z,5.28
2022-09-14T22:29:18.853Z,5.57
2022-09-14T22:31:46.707Z,5.38
2022-09-14T22:34:15.012Z,4.80
2022-09-14T22:36:42.749Z,5.28
2022-09-14T22:39:11.068Z,4.97
2022-09-14T22:41:39.328Z,3.97
2022-09-14T22:44:07.476Z,4.20
2022-09-14T22:46:35.594Z,6.15
2022-09-14T22:49:03.280Z,3.70
2022-09-14T22:51:30.845Z,4.03
2022-09-14T22:53:58.272Z,4.25
2022-09-14T22:56:31.711Z,4.18
2022-09-14T22:59:00.958Z,5.40
2022-09-14T23:01:31.765Z,4.43
2022-09-14T23:04:05.180Z,4.53
2022-09-14T23:09:04.026Z,4.32
2022-09-14T23:11:31.666Z,3.78
2022-09-14T23:13:59.399Z,4.15
2022-09-14T23:16:28.686Z,5.63
2022-09-14T23:19:02.378Z,7.03
2022-09-14T23:21:31.218Z,5.57
2022-09-14T23:24:04.115Z,4.50
2022-09-14T23:26:32.094Z,5.03
2022-09-14T23:29:07.321Z,4.68
2022-09-14T23:31:35.459Z,5.93
2022-09-14T23:34:04.393Z,4.13
2022-09-14T23:36:33.103Z,3.72
2022-09-14T23:39:00.994Z,3.92
2022-09-14T23:41:28.970Z,5.22
2022-09-14T23:43:56.296Z,5.15
2022-09-14T23:46:24.402Z,4.15
2022-09-14T23:48:52.127Z,5.07
2022-09-14T23:51:19.674Z,4.28
2022-09-14T23:53:47.277Z,5.30
2022-09-14T23:56:14.843Z,7.03
2022-09-14T23:58:42.538Z,5.63
